createdAt,value
2017-08-09T00:01:31.137Z,3.70
2017-08-09T00:03:58.755Z,3.50
2017-08-09T00:06:26.440Z,3.00
2017-08-09T00:08:54.061Z,2.87
2017-08-09T00:11:21.961Z,3.70
2017-08-09T00:13:49.620Z,3.97
2017-08-09T00:16:17.246Z,4.13
2017-08-09T00:18:44.867Z,3.03
2017-08-09T00:21:12.531Z,3.20
2017-08-09T00:23:40.150Z,2.43
2017-08-09T00:26:07.765Z,3.30
2017-08-09T00:28:35.469Z,3.33
2017-08-09T00:31:03.087Z,3.20
2017-08-09T00:33:30.706Z,3.90
2017-08-09T00:35:58.761Z,3.93
2017-08-09T00:38:26.377Z,3.00
2017-08-09T00:40:54.222Z,4.33
2017-08-09T00:43:21.885Z,3.37
2017-08-09T00:45:49.532Z,3.77
2017-08-09T00:48:17.157Z,3.50
2017-08-09T00:50:44.941Z,3.40
2017-08-09T00:53:12.561Z,4.90
2017-08-09T00:55:40.184Z,4.73
2017-08-09T00:58:07.868Z,3.27
2017-08-09T01:00:35.525Z,3.60
2017-08-09T01:03:03.144Z,4.20
2017-08-09T01:05:30.804Z,4.73
2017-08-09T01:07:58.421Z,3.60
2017-08-09T01:10:26.036Z,5.00
2017-08-09T01:12:53.683Z,4.47
2017-08-09T01:15:21.352Z,4.30
2017-08-09T01:17:48.973Z,3.80
2017-08-09T01:20:16.621Z,4.10
2017-08-09T01:22:44.530Z,4.30
2017-08-09T01:25:12.148Z,4.27
2017-08-09T01:27:39.825Z,4.37
2017-08-09T01:30:07.452Z,5.37
2017-08-09T01:32:35.096Z,5.50
2017-08-09T01:35:02.917Z,6.07
2017-08-09T01:37:30.535Z,4.73
2017-08-09T01:39:58.169Z,5.47
2017-08-09T01:42:26.629Z,5.23
2017-08-09T01:44:54.260Z,4.27
2017-08-09T01:47:21.916Z,4.57
2017-08-09T01:49:49.608Z,4.10
2017-08-09T01:52:17.280Z,4.60
2017-08-09T01:54:44.932Z,4.13
2017-08-09T01:57:12.837Z,4.80
2017-08-09T01:59:41.241Z,4.17
2017-08-09T02:02:08.930Z,4.00
2017-08-09T02:04:36.653Z,2.97
2017-08-09T02:07:04.261Z,3.20
2017-08-09T02:09:31.869Z,2.97
2017-08-09T02:11:59.550Z,3.70
2017-08-09T02:14:27.168Z,3.40
2017-08-09T02:16:54.922Z,3.30
2017-08-09T02:19:22.573Z,3.23
2017-08-09T02:21:50.184Z,2.53
2017-08-09T02:24:18.574Z,3.43
2017-08-09T02:26:46.247Z,3.60
2017-08-09T02:29:14.301Z,3.73
2017-08-09T02:31:41.913Z,2.60
2017-08-09T02:34:09.913Z,3.80
2017-08-09T02:36:37.532Z,3.53
2017-08-09T02:39:05.154Z,3.50
2017-08-09T02:41:33.573Z,2.90
2017-08-09T02:44:01.356Z,4.00
2017-08-09T02:46:28.971Z,4.10
2017-08-09T02:48:56.663Z,4.23
2017-08-09T02:51:24.334Z,3.00
2017-08-09T02:53:51.949Z,4.47
2017-08-09T02:56:19.683Z,4.27
2017-08-09T02:58:47.304Z,4.17
2017-08-09T03:01:14.915Z,3.63
2017-08-09T03:03:42.610Z,4.30
2017-08-09T03:06:10.323Z,3.80
2017-08-09T03:08:37.944Z,4.93
2017-08-09T03:11:05.610Z,5.07
2017-08-09T03:13:33.351Z,5.53
2017-08-09T03:16:00.969Z,6.23
2017-08-09T03:18:28.637Z,6.80
2017-08-09T03:20:56.249Z,5.70
2017-08-09T03:23:24.633Z,5.70
2017-08-09T03:25:53.284Z,5.27
2017-08-09T03:28:21.133Z,6.40
2017-08-09T03:30:48.742Z,6.17
2017-08-09T03:33:16.424Z,6.10
2017-08-09T03:35:44.039Z,6.20
2017-08-09T03:38:11.656Z,5.50
2017-08-09T03:40:39.329Z,5.60
2017-08-09T03:43:06.951Z,6.43
2017-08-09T03:45:35.105Z,6.90
2017-08-09T03:48:02.987Z,7.03
2017-08-09T03:50:30.609Z,6.00
2017-08-09T03:52:58.481Z,6.60
2017-08-09T03:55:26.157Z,5.63
2017-08-09T03:57:54.529Z,4.83
2017-08-09T04:00:22.188Z,5.83
2017-08-09T04:02:49.853Z,7.57
2017-08-09T04:05:17.460Z,6.87
2017-08-09T04:07:45.221Z,7.03
2017-08-09T04:10:12.887Z,7.13
2017-08-09T04:12:40.959Z,7.87
2017-08-09T04:15:09.861Z,7.00
2017-08-09T04:17:38.805Z,8.13
2017-08-09T04:20:06.420Z,8.40
2017-08-09T04:22:34.033Z,8.10
2017-08-09T04:25:01.731Z,6.83
2017-08-09T04:27:29.344Z,6.50
2017-08-09T04:29:56.953Z,6.30
2017-08-09T04:32:24.632Z,4.60
2017-08-09T04:34:52.250Z,5.27
2017-08-09T04:37:19.864Z,4.90
2017-08-09T04:39:47.520Z,5.23
2017-08-09T04:42:15.139Z,5.93
2017-08-09T04:44:42.756Z,5.27
2017-08-09T04:47:10.419Z,5.70
2017-08-09T04:49:38.035Z,5.40
2017-08-09T04:52:05.696Z,5.13
2017-08-09T04:54:33.452Z,4.63
2017-08-09T04:57:01.069Z,5.80
2017-08-09T04:59:28.689Z,6.43
2017-08-09T05:01:56.362Z,5.20
2017-08-09T05:04:23.975Z,4.80
2017-08-09T05:06:51.612Z,5.47
2017-08-09T05:09:19.316Z,5.07
2017-08-09T05:11:47.150Z,5.70
2017-08-09T05:14:14.770Z,5.40
2017-08-09T05:16:42.453Z,5.53
2017-08-09T05:19:10.828Z,5.27
2017-08-09T05:21:39.212Z,4.83
2017-08-09T05:24:07.647Z,4.60
2017-08-09T05:26:36.399Z,5.50
2017-08-09T05:29:04.961Z,5.37
2017-08-09T05:31:33.397Z,5.30
2017-08-09T05:34:01.077Z,6.30
2017-08-09T05:36:28.692Z,6.00
2017-08-09T05:38:56.681Z,6.17
2017-08-09T05:41:24.307Z,6.57
2017-08-09T05:43:51.936Z,6.63
2017-08-09T05:46:19.632Z,7.50
2017-08-09T05:48:48.068Z,10.20
2017-08-09T05:51:15.684Z,6.70
2017-08-09T05:53:43.345Z,7.00
2017-08-09T05:56:10.965Z,5.97
2017-08-09T05:58:38.592Z,6.17
2017-08-09T06:01:06.503Z,6.83
2017-08-09T06:03:34.110Z,6.57
2017-08-09T06:06:01.724Z,6.50
2017-08-09T06:08:29.372Z,7.80
2017-08-09T06:10:56.984Z,7.50
2017-08-09T06:13:25.351Z,7.37
2017-08-09T06:15:53.028Z,5.80
2017-08-09T06:18:20.641Z,7.33
2017-08-09T06:20:48.252Z,6.10
2017-08-09T06:23:15.900Z,4.80
2017-08-09T06:25:43.516Z,5.63
2017-08-09T06:28:11.304Z,3.90
2017-08-09T06:30:38.972Z,4.60
2017-08-09T06:33:07.154Z,4.10
2017-08-09T06:35:34.775Z,4.00
2017-08-09T06:38:02.583Z,6.80
2017-08-09T06:40:30.442Z,5.00
2017-08-09T06:42:58.066Z,5.30
2017-08-09T06:45:26.036Z,4.80
2017-08-09T06:47:53.652Z,3.90
2017-08-09T06:50:21.445Z,4.37
2017-08-09T06:52:49.358Z,4.07
2017-08-09T06:55:16.972Z,3.27
2017-08-09T06:57:44.580Z,3.20
2017-08-09T07:00:12.346Z,2.90
2017-08-09T07:02:39.965Z,3.10
2017-08-09T07:05:07.575Z,2.40
2017-08-09T07:07:35.273Z,2.50
2017-08-09T07:10:02.890Z,3.37
2017-08-09T07:12:30.516Z,2.60
2017-08-09T07:14:58.934Z,2.73
2017-08-09T07:17:26.552Z,2.70
2017-08-09T07:19:54.472Z,3.00
2017-08-09T07:22:22.160Z,2.50
2017-08-09T07:24:49.763Z,2.77
2017-08-09T07:27:17.373Z,3.23
2017-08-09T07:29:45.224Z,3.17
2017-08-09T07:32:12.840Z,2.50
2017-08-09T07:34:40.664Z,2.47
2017-08-09T07:37:08.323Z,2.80
2017-08-09T07:39:35.937Z,2.40
2017-08-09T07:42:03.653Z,2.33
2017-08-09T07:44:31.312Z,1.53
2017-08-09T07:46:58.925Z,1.80
2017-08-09T07:49:27.309Z,1.80
2017-08-09T07:51:55.025Z,2.20
2017-08-09T07:54:22.655Z,1.40
2017-08-09T07:56:50.273Z,2.00
2017-08-09T07:59:18.386Z,1.40
2017-08-09T08:01:46.008Z,1.83
2017-08-09T08:04:13.635Z,1.50
2017-08-09T08:06:41.353Z,1.90
2017-08-09T08:09:09.720Z,1.50
2017-08-09T08:11:38.103Z,1.70
2017-08-09T08:14:06.537Z,1.90
2017-08-09T08:16:34.150Z,1.90
2017-08-09T08:19:02.088Z,1.90
2017-08-09T08:21:29.768Z,1.20
2017-08-09T08:23:57.706Z,1.47
2017-08-09T08:26:25.367Z,1.07
2017-08-09T08:28:53.584Z,1.67
2017-08-09T08:31:21.207Z,1.30
2017-08-09T08:33:48.821Z,1.00
2017-08-09T08:36:16.488Z,1.13
2017-08-09T08:38:44.101Z,1.00
2017-08-09T08:41:11.714Z,0.90
2017-08-09T08:43:39.373Z,1.10
2017-08-09T08:46:07.761Z,1.20
2017-08-09T08:48:35.519Z,0.97
2017-08-09T08:51:04.134Z,1.00
2017-08-09T08:53:31.752Z,1.13
2017-08-09T08:55:59.371Z,0.90
2017-08-09T08:58:27.239Z,0.93
2017-08-09T09:00:55.316Z,1.40
2017-08-09T09:03:22.924Z,0.97
2017-08-09T09:05:50.602Z,1.13
2017-08-09T09:08:18.225Z,1.00
2017-08-09T09:10:45.844Z,1.07
2017-08-09T09:13:13.524Z,1.00
2017-08-09T09:15:41.132Z,1.20
2017-08-09T09:18:08.750Z,1.00
2017-08-09T09:20:36.414Z,1.20
2017-08-09T09:23:04.293Z,0.93
2017-08-09T09:25:31.921Z,0.77
2017-08-09T09:28:00.030Z,1.00
2017-08-09T09:30:27.641Z,1.40
2017-08-09T09:32:55.347Z,1.17
2017-08-09T09:35:23.049Z,1.50
2017-08-09T09:37:51.434Z,0.70
2017-08-09T09:40:20.086Z,1.37
2017-08-09T09:42:47.885Z,1.23
2017-08-09T09:45:16.271Z,0.93
2017-08-09T09:47:44.648Z,0.80
2017-08-09T09:50:13.108Z,1.00
2017-08-09T09:52:40.736Z,1.37
2017-08-09T09:55:08.351Z,1.00
2017-08-09T09:57:36.071Z,1.03
2017-08-09T10:00:03.834Z,1.20
2017-08-09T10:02:31.445Z,1.30
2017-08-09T10:04:59.117Z,1.10
2017-08-09T10:07:26.733Z,1.17
2017-08-09T10:09:54.353Z,1.20
2017-08-09T10:12:22.332Z,0.90
2017-08-09T10:14:50.122Z,0.90
2017-08-09T10:17:17.886Z,1.30
2017-08-09T10:19:45.542Z,1.07
2017-08-09T10:22:13.177Z,1.40
2017-08-09T10:24:40.796Z,1.93
2017-08-09T10:27:08.461Z,2.03
2017-08-09T10:29:36.084Z,1.80
2017-08-09T10:32:04.481Z,2.27
2017-08-09T10:34:32.138Z,1.50
2017-08-09T10:36:59.879Z,2.10
2017-08-09T10:39:27.511Z,2.00
2017-08-09T10:41:56.077Z,1.80
2017-08-09T10:44:23.689Z,2.20
2017-08-09T10:46:51.309Z,1.60
2017-08-09T10:49:18.972Z,1.63
2017-08-09T10:51:46.602Z,1.47
2017-08-09T10:54:14.422Z,1.80
2017-08-09T10:56:42.372Z,1.20
2017-08-09T10:59:09.979Z,1.30
2017-08-09T11:01:37.592Z,1.10
2017-08-09T11:04:05.264Z,1.17
2017-08-09T11:06:33.080Z,1.20
2017-08-09T11:09:00.703Z,0.70
2017-08-09T11:11:28.373Z,0.80
2017-08-09T11:13:56.752Z,1.30
2017-08-09T11:16:24.369Z,1.20
2017-08-09T11:18:52.943Z,1.30
2017-08-09T11:21:20.570Z,1.00
2017-08-09T11:23:48.372Z,1.50
2017-08-09T11:26:16.053Z,1.40
2017-08-09T11:28:43.702Z,1.20
2017-08-09T11:31:11.324Z,1.40
2017-08-09T11:33:39.001Z,1.30
2017-08-09T11:36:06.634Z,1.40
2017-08-09T11:38:35.045Z,2.10
2017-08-09T11:41:02.714Z,1.87
2017-08-09T11:43:30.510Z,1.20
2017-08-09T11:45:58.322Z,1.67
2017-08-09T11:48:26.045Z,1.30
2017-08-09T11:50:53.689Z,1.20
2017-08-09T11:53:21.314Z,2.63
2017-08-09T11:55:48.984Z,1.93
2017-08-09T11:58:16.807Z,3.67
2017-08-09T12:00:44.432Z,2.20
2017-08-09T12:03:12.108Z,1.80
2017-08-09T12:05:40.894Z,1.60
2017-08-09T12:08:08.518Z,1.40
2017-08-09T12:10:36.203Z,3.07
2017-08-09T12:13:04.007Z,2.33
2017-08-09T12:15:31.703Z,3.37
2017-08-09T12:17:59.381Z,2.37
2017-08-09T12:20:26.998Z,2.90
2017-08-09T12:22:54.669Z,3.50
2017-08-09T12:25:22.596Z,2.30
2017-08-09T12:27:50.220Z,2.10
2017-08-09T12:30:17.908Z,3.20
2017-08-09T12:32:45.613Z,3.10
2017-08-09T12:35:13.282Z,3.63
2017-08-09T12:37:40.871Z,2.90
2017-08-09T12:40:08.812Z,3.10
2017-08-09T12:42:37.061Z,3.10
2017-08-09T12:45:04.953Z,3.50
2017-08-09T12:47:33.169Z,2.77
2017-08-09T12:50:00.785Z,2.53
2017-08-09T12:52:28.648Z,2.70
2017-08-09T12:54:56.322Z,2.77
2017-08-09T12:57:23.950Z,2.40
2017-08-09T12:59:51.898Z,2.90
2017-08-09T13:02:19.573Z,2.93
2017-08-09T13:04:47.198Z,3.10
2017-08-09T13:07:14.820Z,2.50
2017-08-09T13:09:42.497Z,2.13
2017-08-09T13:12:10.377Z,2.30
2017-08-09T13:14:38.024Z,2.63
2017-08-09T13:17:05.689Z,1.80
2017-08-09T13:19:33.309Z,1.47
2017-08-09T13:22:00.925Z,1.60
2017-08-09T13:24:28.605Z,1.63
2017-08-09T13:26:56.220Z,1.83
2017-08-09T13:29:23.845Z,1.47
2017-08-09T13:31:52.567Z,1.40
2017-08-09T13:34:20.508Z,1.43
2017-08-09T13:36:48.115Z,1.50
2017-08-09T13:39:15.796Z,1.30
2017-08-09T13:41:43.653Z,1.57
2017-08-09T13:44:11.407Z,1.33
2017-08-09T13:46:39.343Z,1.67
2017-08-09T13:49:07.161Z,1.70
2017-08-09T13:51:34.934Z,1.33
2017-08-09T13:54:02.598Z,1.73
2017-08-09T13:56:30.218Z,1.20
2017-08-09T13:58:57.842Z,1.47
2017-08-09T14:01:25.513Z,1.43
2017-08-09T14:03:53.250Z,1.57
2017-08-09T14:06:20.894Z,1.30
2017-08-09T14:08:48.844Z,1.20
2017-08-09T14:11:17.007Z,1.13
2017-08-09T14:13:45.174Z,1.50
2017-08-09T14:16:13.298Z,1.30
2017-08-09T14:18:41.651Z,0.87
2017-08-09T14:21:09.988Z,1.07
2017-08-09T14:23:40.004Z,1.30
2017-08-09T14:26:08.968Z,1.43
2017-08-09T14:28:37.585Z,1.10
2017-08-09T14:31:06.511Z,1.30
2017-08-09T14:33:35.518Z,1.50
2017-08-09T14:36:03.306Z,1.20
2017-08-09T14:38:31.013Z,0.90
2017-08-09T14:40:58.632Z,0.97
2017-08-09T14:43:26.305Z,1.30
2017-08-09T14:45:54.060Z,1.30
2017-08-09T14:48:21.824Z,0.90
2017-08-09T14:50:49.590Z,1.20
2017-08-09T14:53:17.446Z,1.27
2017-08-09T14:55:45.121Z,0.97
2017-08-09T14:58:12.740Z,1.27
2017-08-09T15:00:40.658Z,1.23
2017-08-09T15:03:08.424Z,1.20
2017-08-09T15:05:36.062Z,1.07
2017-08-09T15:08:03.744Z,1.07
2017-08-09T15:10:31.370Z,0.97
2017-08-09T15:12:58.985Z,0.90
2017-08-09T15:15:26.794Z,1.20
2017-08-09T15:17:54.705Z,1.20
2017-08-09T15:20:22.317Z,1.20
2017-08-09T15:22:50.016Z,1.20
2017-08-09T15:25:17.665Z,1.10
2017-08-09T15:27:45.272Z,1.23
2017-08-09T15:30:12.941Z,1.00
2017-08-09T15:32:41.384Z,1.03
2017-08-09T15:35:08.999Z,1.20
2017-08-09T15:37:36.694Z,1.40
2017-08-09T15:40:05.244Z,1.10
2017-08-09T15:42:33.649Z,1.37
2017-08-09T15:45:01.447Z,1.30
2017-08-09T15:47:29.077Z,1.33
2017-08-09T15:49:56.697Z,1.40
2017-08-09T15:52:24.405Z,1.70
2017-08-09T15:54:52.025Z,1.23
2017-08-09T15:57:19.650Z,1.53
2017-08-09T15:59:47.315Z,1.50
2017-08-09T16:02:14.974Z,1.77
2017-08-09T16:04:42.598Z,1.57
2017-08-09T16:07:10.265Z,1.87
2017-08-09T16:09:37.878Z,1.27
2017-08-09T16:12:05.548Z,2.00
2017-08-09T16:14:33.400Z,1.77
2017-08-09T16:17:01.038Z,1.30
2017-08-09T16:19:28.684Z,1.63
2017-08-09T16:21:57.014Z,1.30
2017-08-09T16:24:25.074Z,1.43
2017-08-09T16:26:52.693Z,1.27
2017-08-09T16:29:20.353Z,1.80
2017-08-09T16:31:48.164Z,1.80
2017-08-09T16:34:15.792Z,1.27
2017-08-09T16:36:43.598Z,1.50
2017-08-09T16:39:11.214Z,1.33
2017-08-09T16:41:38.836Z,2.00
2017-08-09T16:44:06.496Z,1.23
2017-08-09T16:46:34.119Z,1.50
2017-08-09T16:49:01.737Z,1.80
2017-08-09T16:51:29.548Z,1.83
2017-08-09T16:53:57.174Z,2.90
2017-08-09T16:56:24.817Z,1.57
2017-08-09T16:58:52.490Z,5.00
2017-08-09T17:01:20.119Z,7.03
2017-08-09T17:03:47.748Z,1.70
2017-08-09T17:06:16.048Z,4.47
2017-08-09T17:08:43.931Z,3.60
2017-08-09T17:11:11.912Z,2.20
2017-08-09T17:13:39.582Z,1.70
2017-08-09T17:16:07.211Z,2.27
2017-08-09T17:18:35.886Z,4.40
2017-08-09T17:21:03.563Z,1.30
2017-08-09T17:23:31.183Z,1.10
2017-08-09T17:25:58.800Z,1.17
2017-08-09T17:28:26.480Z,1.90
2017-08-09T17:30:54.377Z,1.10
2017-08-09T17:33:22.761Z,1.63
2017-08-09T17:35:51.413Z,2.30
2017-08-09T17:38:19.177Z,3.57
2017-08-09T17:40:46.789Z,1.77
2017-08-09T17:43:14.492Z,1.47
2017-08-09T17:45:42.108Z,1.00
2017-08-09T17:48:09.720Z,1.50
2017-08-09T17:50:37.386Z,1.67
2017-08-09T17:53:05.554Z,1.63
2017-08-09T17:55:33.217Z,1.97
2017-08-09T17:58:01.501Z,1.73
2017-08-09T18:00:29.156Z,1.40
2017-08-09T18:02:56.829Z,1.30
2017-08-09T18:05:25.303Z,1.50
2017-08-09T18:07:52.912Z,1.57
2017-08-09T18:10:20.539Z,1.53
2017-08-09T18:12:48.292Z,1.60
2017-08-09T18:15:15.908Z,1.50
2017-08-09T18:17:43.534Z,1.37
2017-08-09T18:20:11.209Z,1.83
2017-08-09T18:22:39.325Z,2.10
2017-08-09T18:25:07.665Z,2.27
2017-08-09T18:27:35.613Z,1.87
2017-08-09T18:30:03.795Z,2.20
2017-08-09T18:32:31.860Z,1.90
2017-08-09T18:35:00.116Z,2.00
2017-08-09T18:37:28.137Z,1.93
2017-08-09T18:39:56.532Z,1.60
2017-08-09T18:42:24.321Z,1.67
2017-08-09T18:44:52.924Z,2.50
2017-08-09T18:47:20.648Z,2.00
2017-08-09T18:49:49.581Z,2.20
2017-08-09T18:52:17.669Z,1.90
2017-08-09T18:54:45.342Z,2.13
2017-08-09T18:57:13.052Z,2.03
2017-08-09T18:59:40.724Z,2.10
2017-08-09T19:02:08.990Z,2.50
2017-08-09T19:04:37.485Z,3.00
2017-08-09T19:07:05.152Z,2.40
2017-08-09T19:09:33.391Z,2.00
2017-08-09T19:12:01.113Z,2.40
2017-08-09T19:14:29.243Z,2.40
2017-08-09T19:16:56.924Z,1.90
2017-08-09T19:19:24.770Z,2.47
2017-08-09T19:21:53.010Z,2.70
2017-08-09T19:24:21.173Z,3.00
2017-08-09T19:26:49.531Z,2.67
2017-08-09T19:29:17.165Z,2.43
2017-08-09T19:31:45.083Z,2.50
2017-08-09T19:34:13.284Z,2.50
2017-08-09T19:36:41.577Z,2.30
2017-08-09T19:39:09.513Z,2.00
2017-08-09T19:41:37.594Z,1.90
2017-08-09T19:44:05.806Z,2.37
2017-08-09T19:46:33.469Z,2.63
2017-08-09T19:49:02.523Z,3.80
2017-08-09T19:51:30.797Z,2.90
2017-08-09T19:53:58.985Z,2.20
2017-08-09T19:56:27.052Z,2.80
2017-08-09T19:58:55.356Z,2.97
2017-08-09T20:01:24.412Z,2.27
2017-08-09T20:03:52.572Z,2.37
2017-08-09T20:06:20.448Z,2.53
2017-08-09T20:08:48.668Z,2.80
2017-08-09T20:11:16.744Z,2.23
2017-08-09T20:13:44.404Z,2.60
2017-08-09T20:16:12.584Z,2.30
2017-08-09T20:18:40.600Z,1.77
2017-08-09T20:21:08.274Z,2.70
2017-08-09T20:23:36.604Z,2.00
2017-08-09T20:26:04.436Z,1.90
2017-08-09T20:28:32.595Z,2.17
2017-08-09T20:31:00.220Z,2.17
2017-08-09T20:33:27.888Z,2.10
2017-08-09T20:35:55.560Z,2.07
2017-08-09T20:38:23.385Z,2.13
2017-08-09T20:40:51.857Z,2.63
2017-08-09T20:43:19.493Z,2.83
2017-08-09T20:45:47.218Z,2.33
2017-08-09T20:48:15.991Z,2.93
2017-08-09T20:50:45.358Z,3.00
2017-08-09T20:53:12.987Z,2.80
2017-08-09T20:55:40.669Z,2.47
2017-08-09T20:58:09.777Z,2.70
2017-08-09T21:00:38.138Z,2.87
2017-08-09T21:03:05.865Z,2.90
2017-08-09T21:05:35.049Z,3.00
2017-08-09T21:08:03.801Z,3.23
2017-08-09T21:10:32.537Z,3.03
2017-08-09T21:13:01.511Z,2.67
2017-08-09T21:15:31.189Z,2.37
2017-08-09T21:18:00.005Z,2.77
2017-08-09T21:20:27.960Z,2.80
2017-08-09T21:22:55.594Z,3.17
2017-08-09T21:25:24.159Z,3.20
2017-08-09T21:27:53.069Z,2.73
2017-08-09T21:30:20.877Z,3.10
2017-08-09T21:32:48.639Z,2.60
2017-08-09T21:35:16.401Z,3.17
2017-08-09T21:37:44.130Z,3.00
2017-08-09T21:40:14.989Z,2.70
2017-08-09T21:42:43.702Z,2.50
2017-08-09T21:45:11.682Z,2.90
2017-08-09T21:47:40.196Z,3.20
2017-08-09T21:50:08.556Z,3.40
2017-08-09T21:52:36.581Z,2.97
2017-08-09T21:55:04.379Z,3.23
2017-08-09T21:57:33.949Z,3.80
2017-08-09T22:00:03.304Z,3.27
2017-08-09T22:02:32.451Z,3.40
2017-08-09T22:05:00.833Z,3.30
2017-08-09T22:07:29.879Z,3.20
2017-08-09T22:09:57.489Z,3.50
2017-08-09T22:12:25.113Z,3.27
2017-08-09T22:14:52.787Z,4.20
2017-08-09T22:17:20.585Z,3.97
2017-08-09T22:19:48.236Z,4.17
2017-08-09T22:22:15.924Z,5.00
2017-08-09T22:24:43.545Z,4.00
2017-08-09T22:27:11.165Z,5.00
2017-08-09T22:29:38.829Z,4.60
2017-08-09T22:32:07.486Z,3.70
2017-08-09T22:34:35.110Z,4.33
2017-08-09T22:37:02.829Z,5.73
2017-08-09T22:39:30.473Z,7.17
2017-08-09T22:41:58.108Z,6.40
2017-08-09T22:44:26.003Z,6.20
2017-08-09T22:46:53.629Z,7.27
2017-08-09T22:49:21.251Z,5.97
2017-08-09T22:51:49.698Z,5.90
2017-08-09T22:54:17.320Z,7.10
2017-08-09T22:56:44.946Z,6.33
2017-08-09T22:59:12.634Z,7.40
2017-08-09T23:01:41.032Z,6.87
2017-08-09T23:04:08.652Z,7.30
2017-08-09T23:06:36.518Z,8.03
2017-08-09T23:09:04.580Z,6.60
2017-08-09T23:11:32.193Z,6.10
2017-08-09T23:13:59.893Z,6.70
2017-08-09T23:16:27.517Z,6.50
2017-08-09T23:18:55.138Z,7.80
2017-08-09T23:21:22.806Z,6.90
2017-08-09T23:23:50.648Z,7.37
2017-08-09T23:26:18.273Z,6.80
2017-08-09T23:28:45.969Z,7.70
2017-08-09T23:31:13.594Z,6.53
2017-08-09T23:33:42.232Z,5.57
2017-08-09T23:36:09.938Z,5.90
2017-08-09T23:38:37.564Z,6.10
2017-08-09T23:41:05.192Z,7.90
2017-08-09T23:43:32.869Z,6.40
2017-08-09T23:46:00.540Z,6.40
2017-08-09T23:48:28.171Z,6.60
2017-08-09T23:50:55.855Z,6.60
2017-08-09T23:53:23.477Z,7.00
2017-08-09T23:55:52.126Z,10.23
2017-08-09T23:58:19.812Z,7.90
